Time;durP1;ratioP1;P1;durP2;ratioP2;P2;SDS_P1;SDS_P2;PMS_P1;PMS_P2;Temp;Humidity;BMP_temperature;BMP_pressure;BME280_temperature;BME280_humidity;BME280_pressure;Samples;Min_cycle;Max_cycle;Signal;HPM_P1;HPM_P2
2022/07/10 00:00:12;;;;;;;7.25;4.15;;;24.90;69.20;;;;;;4937820;28;20191;-79
2022/07/10 00:02:41;;;;;;;6.28;4.70;;;24.90;69.40;;;;;;4938931;28;20743;-79
2022/07/10 00:05:10;;;;;;;5.35;3.42;;;24.90;69.40;;;;;;4939545;28;20209;-80
2022/07/10 00:07:46;;;;;;;5.30;3.40;;;24.80;69.40;;;;;;4940650;28;20199;-79
2022/07/10 00:10:15;;;;;;;4.97;3.47;;;24.80;70.20;;;;;;4943589;28;20225;-79
2022/07/10 00:12:44;;;;;;;4.97;3.30;;;24.80;69.40;;;;;;4943653;28;20207;-79
2022/07/10 00:15:15;;;;;;;7.60;3.40;;;24.80;69.30;;;;;;4941976;28;20206;-79
2022/07/10 00:17:44;;;;;;;5.50;3.10;;;24.80;69.30;;;;;;4943819;28;20208;-79
2022/07/10 00:20:14;;;;;;;7.00;3.35;;;24.80;69.30;;;;;;4943167;28;20206;-80
2022/07/10 00:22:42;;;;;;;4.45;3.28;;;24.80;69.30;;;;;;4941267;28;20249;-78
2022/07/10 00:25:13;;;;;;;6.43;3.55;;;24.80;69.20;;;;;;4942957;28;20209;-78
2022/07/10 00:27:42;;;;;;;4.85;3.13;;;24.80;69.20;;;;;;4935233;28;20193;-78
2022/07/10 00:30:11;;;;;;;6.82;3.40;;;24.80;69.30;;;;;;4936691;28;20204;-78
2022/07/10 00:32:41;;;;;;;8.75;3.63;;;24.80;69.40;;;;;;4942930;28;20202;-79
2022/07/10 00:35:10;;;;;;;6.30;3.47;;;24.80;69.50;;;;;;4938348;28;20195;-78
2022/07/10 00:37:38;;;;;;;5.03;3.22;;;24.70;69.50;;;;;;4945079;28;20567;-79
2022/07/10 00:40:07;;;;;;;4.65;3.00;;;24.70;69.40;;;;;;4937553;28;20680;-79
2022/07/10 00:42:36;;;;;;;4.10;3.40;;;24.70;69.50;;;;;;4941815;28;20255;-80
2022/07/10 00:45:05;;;;;;;6.97;3.40;;;24.70;69.60;;;;;;4946486;28;20202;-79
2022/07/10 00:47:33;;;;;;;6.18;3.30;;;24.70;69.60;;;;;;4939077;28;20863;-79
2022/07/10 00:50:03;;;;;;;7.75;3.55;;;24.70;69.70;;;;;;4939994;28;20233;-79
2022/07/10 00:52:33;;;;;;;6.97;3.35;;;24.70;69.70;;;;;;4939926;28;20641;-80
2022/07/10 00:55:01;;;;;;;5.03;3.35;;;24.70;69.60;;;;;;4936904;28;20289;-79
2022/07/10 00:57:30;;;;;;;6.13;3.55;;;24.70;69.80;;;;;;4938997;28;20214;-78
2022/07/10 00:59:59;;;;;;;6.50;3.30;;;24.70;69.80;;;;;;4936931;28;20226;-79
2022/07/10 01:02:27;;;;;;;5.20;3.53;;;24.70;69.80;;;;;;4943687;28;20614;-78
2022/07/10 01:04:58;;;;;;;5.22;3.58;;;24.70;69.80;;;;;;4939359;28;20231;-77
2022/07/10 01:07:28;;;;;;;6.53;3.67;;;24.60;69.70;;;;;;4938608;28;20186;-78
2022/07/10 01:09:59;;;;;;;9.82;3.25;;;24.70;69.70;;;;;;4941897;28;20213;-80
2022/07/10 01:12:28;;;;;;;8.07;3.60;;;24.60;69.60;;;;;;4938000;28;20193;-78
2022/07/10 01:14:57;;;;;;;4.05;2.83;;;24.60;69.60;;;;;;4941862;28;20244;-79
2022/07/10 01:17:28;;;;;;;9.77;3.80;;;24.60;69.70;;;;;;4937714;28;20214;-80
2022/07/10 01:19:57;;;;;;;5.28;3.13;;;24.60;69.80;;;;;;4939518;28;20688;-79
2022/07/10 01:22:27;;;;;;;3.92;2.83;;;24.60;69.90;;;;;;4944887;28;20225;-79
2022/07/10 01:24:55;;;;;;;4.80;3.13;;;24.60;70.00;;;;;;4943169;28;20206;-80
2022/07/10 01:27:23;;;;;;;3.10;2.70;;;24.60;70.00;;;;;;4931493;28;20209;-80
2022/07/10 01:29:54;;;;;;;6.38;3.40;;;24.60;69.90;;;;;;4939442;28;20217;-79
2022/07/10 01:32:22;;;;;;;5.45;2.95;;;24.60;69.80;;;;;;4939570;28;20195;-79
2022/07/10 01:34:51;;;;;;;8.27;3.35;;;24.60;69.70;;;;;;4943122;28;20218;-79
2022/07/10 01:37:19;;;;;;;4.72;3.22;;;24.60;69.70;;;;;;4931096;28;20569;-80
2022/07/10 01:39:49;;;;;;;6.03;4.10;;;24.60;69.70;;;;;;4934346;28;20191;-78
2022/07/10 01:42:17;;;;;;;5.82;3.00;;;24.60;69.70;;;;;;4940263;28;20213;-79
2022/07/10 01:44:46;;;;;;;8.13;2.95;;;24.60;69.70;;;;;;4941072;28;20195;-79
2022/07/10 01:47:14;;;;;;;4.20;2.90;;;24.60;69.70;;;;;;4938990;28;20202;-80
2022/07/10 01:49:43;;;;;;;5.82;3.30;;;24.60;69.80;;;;;;4938816;28;20326;-79
2022/07/10 01:52:11;;;;;;;4.60;3.20;;;24.60;69.90;;;;;;4938206;28;20205;-80
2022/07/10 01:54:40;;;;;;;5.82;3.22;;;24.60;69.90;;;;;;4943282;28;20198;-79
2022/07/10 01:57:10;;;;;;;5.38;3.33;;;24.60;69.90;;;;;;4943538;28;20213;-79
2022/07/10 01:59:38;;;;;;;5.13;3.13;;;24.60;69.80;;;;;;4937566;28;20653;-79
2022/07/10 02:02:07;;;;;;;4.53;2.70;;;24.50;69.90;;;;;;4934807;28;20206;-79
2022/07/10 02:04:41;;;;;;;4.78;3.20;;;24.50;70.00;;;;;;4937550;28;20333;-79
2022/07/10 02:07:09;;;;;;;4.05;2.95;;;24.50;69.90;;;;;;4936225;28;20777;-79
2022/07/10 02:09:38;;;;;;;5.45;3.33;;;24.50;69.80;;;;;;4942180;28;20199;-78
2022/07/10 02:12:09;;;;;;;8.10;3.05;;;24.50;70.00;;;;;;4941638;28;20209;-79
2022/07/10 02:14:38;;;;;;;5.68;3.72;;;24.50;70.00;;;;;;4931321;28;20201;-79
2022/07/10 02:17:06;;;;;;;4.72;3.15;;;24.50;70.10;;;;;;4931287;28;20208;-79
2022/07/10 02:19:35;;;;;;;6.63;3.30;;;24.50;70.20;;;;;;4935711;28;20194;-79
2022/07/10 02:22:05;;;;;;;10.35;3.35;;;24.50;70.30;;;;;;4933606;28;20207;-79
2022/07/10 02:24:33;;;;;;;4.80;3.17;;;24.50;70.50;;;;;;4938422;28;20211;-79
2022/07/10 02:27:01;;;;;;;7.28;3.50;;;24.50;70.40;;;;;;4938327;28;20210;-79
2022/07/10 02:29:31;;;;;;;5.55;3.35;;;24.50;70.40;;;;;;4933049;28;20234;-79
2022/07/10 02:32:00;;;;;;;6.70;3.20;;;24.50;70.50;;;;;;4932019;28;20294;-78
2022/07/10 02:34:29;;;;;;;5.80;3.60;;;24.50;70.50;;;;;;4939157;28;20199;-78
2022/07/10 02:36:57;;;;;;;3.65;2.83;;;24.50;70.50;;;;;;4939984;28;20206;-79
2022/07/10 02:39:26;;;;;;;4.13;3.10;;;24.50;70.50;;;;;;4941114;28;20199;-79
2022/07/10 02:41:54;;;;;;;6.30;3.50;;;24.50;70.50;;;;;;4943476;28;20198;-79
2022/07/10 02:44:23;;;;;;;5.78;3.17;;;24.50;70.60;;;;;;4938406;28;20207;-79
2022/07/10 02:46:52;;;;;;;7.93;3.03;;;24.50;70.60;;;;;;4937598;28;20660;-79
2022/07/10 02:49:21;;;;;;;3.67;2.85;;;24.40;70.60;;;;;;4939576;28;20201;-78
2022/07/10 02:51:50;;;;;;;4.85;2.60;;;24.40;70.40;;;;;;4941763;28;20202;-78
2022/07/10 02:54:18;;;;;;;6.80;2.70;;;24.40;70.30;;;;;;4944429;28;20282;-79
2022/07/10 02:56:47;;;;;;;4.72;2.55;;;24.40;70.20;;;;;;4942439;28;20198;-78
2022/07/10 02:59:16;;;;;;;4.63;2.95;;;24.40;70.10;;;;;;4941394;28;20210;-79
2022/07/10 03:01:45;;;;;;;6.05;3.03;;;24.40;70.00;;;;;;4937965;28;20766;-79
2022/07/10 03:04:16;;;;;;;5.28;2.55;;;24.40;70.00;;;;;;4938154;28;20241;-79
2022/07/10 03:06:45;;;;;;;5.90;2.95;;;24.40;70.10;;;;;;4944734;28;20206;-80
2022/07/10 03:09:13;;;;;;;5.80;2.78;;;24.40;70.10;;;;;;4944815;28;20202;-79
2022/07/10 03:11:41;;;;;;;6.10;2.75;;;24.30;70.20;;;;;;4939504;28;20199;-79
2022/07/10 03:14:10;;;;;;;5.00;2.90;;;24.30;70.40;;;;;;4950227;28;20202;-79
2022/07/10 03:16:39;;;;;;;4.07;2.80;;;24.30;70.50;;;;;;4941161;28;20303;-79
2022/07/10 03:19:07;;;;;;;3.72;2.90;;;24.30;70.70;;;;;;4941781;28;20207;-78
2022/07/10 03:21:37;;;;;;;6.35;2.72;;;24.30;70.80;;;;;;4941219;28;20202;-78
2022/07/10 03:24:06;;;;;;;5.38;3.03;;;24.30;70.70;;;;;;4937766;28;20222;-79
2022/07/10 03:26:34;;;;;;;16.58;3.67;;;24.30;70.50;;;;;;4941553;28;20880;-79
2022/07/10 03:29:03;;;;;;;3.63;2.70;;;24.30;70.50;;;;;;4936324;28;20205;-80
2022/07/10 03:31:31;;;;;;;4.93;2.67;;;24.30;70.70;;;;;;4938568;28;20214;-78
2022/07/10 03:34:00;;;;;;;4.88;3.25;;;24.30;70.80;;;;;;4944850;28;20599;-79
2022/07/10 03:36:28;;;;;;;8.93;3.40;;;24.30;70.80;;;;;;4944407;28;20203;-79
2022/07/10 03:38:58;;;;;;;6.05;3.10;;;24.30;70.90;;;;;;4943905;28;20210;-79
2022/07/10 03:41:26;;;;;;;4.53;3.30;;;24.30;71.00;;;;;;4937572;28;20194;-79
2022/07/10 03:43:55;;;;;;;4.43;3.05;;;24.30;71.10;;;;;;4941610;28;20251;-78
2022/07/10 03:46:23;;;;;;;4.38;3.17;;;24.30;71.30;;;;;;4943665;28;20826;-78
2022/07/10 03:48:52;;;;;;;4.82;3.17;;;24.30;71.60;;;;;;4947730;28;20304;-78
2022/07/10 03:51:20;;;;;;;6.35;3.28;;;24.30;71.80;;;;;;4940366;28;20675;-79
2022/07/10 03:53:49;;;;;;;5.65;2.97;;;24.30;71.90;;;;;;4943054;28;20621;-79
2022/07/10 03:59:01;;;;;;;6.28;3.75;;;24.30;72.60;;;;;;4942561;28;20206;-80
2022/07/10 04:01:29;;;;;;;9.18;3.80;;;24.30;72.70;;;;;;4941912;28;20290;-79
2022/07/10 04:03:58;;;;;;;7.25;3.90;;;24.20;73.00;;;;;;4941541;28;20302;-79
2022/07/10 04:06:27;;;;;;;5.75;3.33;;;24.20;73.50;;;;;;4937855;28;20202;-79
2022/07/10 04:08:55;;;;;;;6.28;3.88;;;24.20;73.70;;;;;;4942756;28;20202;-79
2022/07/10 04:11:25;;;;;;;5.75;3.72;;;24.10;74.00;;;;;;4935194;28;20272;-79
2022/07/10 04:13:54;;;;;;;5.10;3.60;;;24.10;74.40;;;;;;4939995;28;20646;-79
2022/07/10 04:16:22;;;;;;;4.55;3.40;;;24.10;74.50;;;;;;4941500;28;20601;-79
2022/07/10 04:18:51;;;;;;;6.22;3.50;;;24.10;74.50;;;;;;4937558;28;20732;-79
2022/07/10 04:21:19;;;;;;;6.78;3.28;;;24.10;74.40;;;;;;4938326;28;20347;-78
2022/07/10 04:23:48;;;;;;;7.85;2.97;;;24.10;74.30;;;;;;4935952;28;20209;-79
2022/07/10 04:26:16;;;;;;;4.97;3.38;;;24.10;74.00;;;;;;4942012;28;20199;-79
2022/07/10 04:28:46;;;;;;;10.20;3.92;;;24.20;73.90;;;;;;4942159;28;20207;-79
2022/07/10 04:31:14;;;;;;;8.00;4.47;;;24.20;74.50;;;;;;4936564;28;20203;-78
2022/07/10 04:33:42;;;;;;;4.93;3.38;;;24.10;74.60;;;;;;4938485;28;20226;-79
2022/07/10 04:36:11;;;;;;;6.05;3.28;;;24.10;74.90;;;;;;4935793;28;20209;-79
2022/07/10 04:38:39;;;;;;;4.85;3.60;;;24.10;74.90;;;;;;4942953;28;20199;-78
2022/07/10 04:41:08;;;;;;;5.15;3.40;;;24.10;74.80;;;;;;4937515;28;20289;-80
2022/07/10 04:43:37;;;;;;;7.78;3.33;;;24.10;75.00;;;;;;4939499;28;20205;-79
2022/07/10 04:46:07;;;;;;;5.72;3.50;;;24.10;75.20;;;;;;4941413;28;20219;-80
2022/07/10 04:48:35;;;;;;;4.13;3.10;;;24.10;75.50;;;;;;4943919;28;20202;-79
2022/07/10 04:51:05;;;;;;;5.18;3.47;;;24.10;75.50;;;;;;4940765;28;20263;-79
2022/07/10 04:53:33;;;;;;;5.22;3.85;;;24.00;75.50;;;;;;4937009;28;20579;-77
2022/07/10 04:56:02;;;;;;;5.53;3.80;;;24.10;75.60;;;;;;4933652;28;20199;-79
2022/07/10 04:58:30;;;;;;;5.88;4.55;;;24.00;75.80;;;;;;4942558;28;20202;-79
2022/07/10 05:00:58;;;;;;;5.85;3.63;;;24.00;75.90;;;;;;4941207;28;20208;-78
2022/07/10 05:03:29;;;;;;;5.85;3.90;;;24.00;75.90;;;;;;4941674;28;20328;-79
2022/07/10 05:05:57;;;;;;;5.55;3.92;;;24.00;76.00;;;;;;4944189;28;20210;-78
2022/07/10 05:08:26;;;;;;;8.18;3.70;;;24.00;76.00;;;;;;4940712;28;20198;-78
2022/07/10 05:10:54;;;;;;;8.07;3.65;;;24.10;76.20;;;;;;4943380;28;20206;-78
2022/07/10 05:13:22;;;;;;;5.57;4.25;;;24.00;76.20;;;;;;4940162;28;20198;-78
2022/07/10 05:15:51;;;;;;;8.70;4.85;;;24.10;76.50;;;;;;4942712;28;20203;-79
2022/07/10 05:18:19;;;;;;;7.10;4.50;;;24.10;76.50;;;;;;4944433;28;20249;-78
2022/07/10 05:20:49;;;;;;;8.23;4.35;;;24.10;76.50;;;;;;4940479;28;20842;-79
2022/07/10 05:23:18;;;;;;;6.03;4.00;;;24.10;76.60;;;;;;4945521;28;20194;-78
2022/07/10 05:25:46;;;;;;;6.20;4.50;;;24.10;76.80;;;;;;4945760;28;20217;-78
2022/07/10 05:28:15;;;;;;;8.82;4.00;;;24.10;76.80;;;;;;4945266;28;20202;-79
2022/07/10 05:30:43;;;;;;;7.68;3.95;;;24.10;76.80;;;;;;4940068;28;20194;-79
2022/07/10 05:33:11;;;;;;;7.00;4.13;;;24.10;76.80;;;;;;4939585;28;20206;-78
2022/07/10 05:35:40;;;;;;;8.57;4.05;;;24.10;76.90;;;;;;4943536;28;20210;-79
2022/07/10 05:38:10;;;;;;;5.63;3.40;;;24.20;77.00;;;;;;4936866;28;20230;-78
2022/07/10 05:40:38;;;;;;;5.97;4.20;;;24.20;77.30;;;;;;4940571;28;20282;-78
2022/07/10 05:43:07;;;;;;;7.30;4.30;;;24.20;77.30;;;;;;4944162;28;20941;-80
2022/07/10 05:45:35;;;;;;;9.10;4.53;;;24.20;77.80;;;;;;4941959;28;20210;-79
2022/07/10 05:48:04;;;;;;;7.15;4.40;;;24.20;78.10;;;;;;4943355;28;20206;-78
2022/07/10 05:50:32;;;;;;;10.18;5.50;;;24.20;78.00;;;;;;4941823;28;20199;-79
2022/07/10 05:53:01;;;;;;;11.23;6.05;;;24.20;77.70;;;;;;4940456;28;20202;-80
2022/07/10 05:55:31;;;;;;;14.85;6.00;;;24.30;77.70;;;;;;4939959;28;20191;-79
2022/07/10 05:58:00;;;;;;;13.27;6.00;;;24.30;77.60;;;;;;4938936;28;20199;-80
2022/07/10 06:00:28;;;;;;;12.10;5.60;;;24.30;77.60;;;;;;4944573;28;20202;-78
2022/07/10 06:02:56;;;;;;;8.82;5.30;;;24.30;77.60;;;;;;4943289;28;20222;-79
2022/07/10 06:05:25;;;;;;;6.65;4.97;;;24.40;77.70;;;;;;4948686;28;20232;-80
2022/07/10 06:07:54;;;;;;;9.00;5.38;;;24.40;77.80;;;;;;4942423;28;20194;-79
2022/07/10 06:10:22;;;;;;;7.47;5.10;;;24.40;77.80;;;;;;4947077;28;20249;-79
2022/07/10 06:12:52;;;;;;;9.10;4.50;;;24.50;77.90;;;;;;4942147;28;20222;-79
2022/07/10 06:15:26;;;;;;;8.90;4.57;;;24.50;77.90;;;;;;4946380;28;20619;-77
2022/07/10 06:17:57;;;;;;;10.80;5.03;;;24.50;78.00;;;;;;4940033;28;20193;-79
2022/07/10 06:20:26;;;;;;;6.75;4.35;;;24.60;77.90;;;;;;4943847;28;20196;-81
2022/07/10 06:23:02;;;;;;;9.27;4.45;;;24.60;77.60;;;;;;4937384;28;20213;-78
2022/07/10 06:25:31;;;;;;;5.50;3.70;;;24.60;77.50;;;;;;4944015;28;20237;-79
2022/07/10 06:28:00;;;;;;;9.43;3.92;;;24.70;77.50;;;;;;4947822;28;20703;-79
2022/07/10 06:30:29;;;;;;;5.38;3.78;;;24.70;76.90;;;;;;4947441;28;20603;-79
2022/07/10 06:32:57;;;;;;;9.75;3.67;;;24.70;75.80;;;;;;4946457;28;20937;-80
2022/07/10 06:35:26;;;;;;;6.22;3.63;;;24.80;74.80;;;;;;4948702;28;20199;-81
2022/07/10 06:37:54;;;;;;;7.00;3.35;;;24.80;73.80;;;;;;4946292;28;20291;-79
2022/07/10 06:40:22;;;;;;;5.95;3.50;;;24.80;73.20;;;;;;4940301;28;20210;-79
2022/07/10 06:42:51;;;;;;;4.75;3.20;;;24.80;73.30;;;;;;4951288;28;20203;-80
2022/07/10 06:45:21;;;;;;;6.22;3.33;;;24.80;73.30;;;;;;4945324;28;20593;-78
2022/07/10 06:47:58;;;;;;;7.00;3.42;;;24.80;73.20;;;;;;4947722;28;20857;-76
2022/07/10 06:50:30;;;;;;;4.10;2.97;;;24.80;72.70;;;;;;4942989;28;20571;-79
2022/07/10 06:52:59;;;;;;;4.47;3.17;;;24.90;72.40;;;;;;4946165;28;20876;-79
2022/07/10 06:55:28;;;;;;;5.45;3.20;;;24.90;72.10;;;;;;4948395;28;20222;-79
2022/07/10 06:57:57;;;;;;;4.40;2.75;;;24.90;71.90;;;;;;4943305;28;20213;-78
2022/07/10 07:00:27;;;;;;;6.88;3.40;;;24.90;72.00;;;;;;4941364;28;20210;-78
2022/07/10 07:02:56;;;;;;;5.03;3.65;;;25.00;72.00;;;;;;4940414;28;20237;-76
2022/07/10 07:05:24;;;;;;;5.22;3.30;;;25.00;71.30;;;;;;4946542;29;20229;-79
2022/07/10 07:07:53;;;;;;;4.32;3.03;;;25.00;71.20;;;;;;4948354;29;20210;-77
2022/07/10 07:10:21;;;;;;;6.38;3.33;;;25.10;71.30;;;;;;4946491;28;20222;-78
2022/07/10 07:12:49;;;;;;;6.50;3.33;;;25.20;71.10;;;;;;4946837;28;20911;-79
2022/07/10 07:15:20;;;;;;;5.10;2.67;;;25.20;71.30;;;;;;4947324;29;20207;-78
2022/07/10 07:18:07;;;;;;;7.25;3.22;;;25.30;71.00;;;;;;4945272;28;20195;-78
2022/07/10 07:23:23;;;;;;;6.35;3.03;;;25.40;70.00;;;;;;4947260;28;20230;-78
2022/07/10 07:25:52;;;;;;;4.00;2.83;;;25.50;70.00;;;;;;4941214;29;20351;-77
2022/07/10 07:28:21;;;;;;;4.43;3.25;;;25.50;69.90;;;;;;4947524;28;20205;-79
2022/07/10 07:30:50;;;;;;;3.67;3.05;;;25.60;68.90;;;;;;4944883;28;20205;-79
2022/07/10 07:33:20;;;;;;;8.85;3.63;;;25.60;68.30;;;;;;4947468;28;20198;-78
2022/07/10 07:35:48;;;;;;;4.57;3.03;;;25.60;68.70;;;;;;4946856;28;20205;-76
2022/07/10 07:38:17;;;;;;;6.25;3.30;;;25.60;68.90;;;;;;4945833;28;20201;-79
2022/07/10 07:40:45;;;;;;;6.53;3.20;;;25.60;68.60;;;;;;4945779;28;20201;-78
2022/07/10 07:43:15;;;;;;;5.68;3.20;;;25.60;68.60;;;;;;4947460;29;20291;-77
2022/07/10 07:45:43;;;;;;;5.00;3.40;;;25.60;68.80;;;;;;4947217;29;20218;-76
2022/07/10 07:48:11;;;;;;;4.25;3.33;;;25.60;68.30;;;;;;4946904;28;20195;-77
2022/07/10 07:50:41;;;;;;;5.60;3.35;;;25.60;68.20;;;;;;4947580;28;20209;-77
2022/07/10 07:53:10;;;;;;;6.45;3.42;;;25.60;68.40;;;;;;4945504;28;20198;-78
2022/07/10 07:55:39;;;;;;;7.10;3.40;;;25.60;68.60;;;;;;4947328;28;20672;-78
2022/07/10 07:58:08;;;;;;;6.60;3.30;;;25.70;68.40;;;;;;4946668;29;20202;-77
2022/07/10 08:00:37;;;;;;;5.63;3.38;;;25.70;68.30;;;;;;4946964;28;20664;-80
2022/07/10 08:03:06;;;;;;;4.90;3.40;;;25.80;68.70;;;;;;4943196;28;20222;-79
2022/07/10 08:05:34;;;;;;;5.30;3.47;;;25.70;69.00;;;;;;4945558;28;20210;-77
2022/07/10 08:08:08;;;;;;;5.32;3.10;;;25.80;68.70;;;;;;4947416;29;20210;-85
2022/07/10 08:10:37;;;;;;;5.57;2.85;;;25.90;68.70;;;;;;4944172;28;20229;-77
2022/07/10 08:13:12;;;;;;;3.67;2.85;;;25.90;67.60;;;;;;4945998;28;20936;-79
2022/07/10 08:15:40;;;;;;;2.95;2.45;;;26.00;67.00;;;;;;4938562;28;20620;-79
2022/07/10 08:18:09;;;;;;;5.93;2.85;;;26.00;65.30;;;;;;4946917;28;20799;-78
2022/07/10 08:20:37;;;;;;;5.78;2.80;;;26.10;65.50;;;;;;4946692;29;20226;-77
2022/07/10 08:23:07;;;;;;;6.32;2.75;;;26.10;64.70;;;;;;4945813;28;20202;-78
2022/07/10 08:25:35;;;;;;;4.47;2.65;;;26.10;65.00;;;;;;4946105;28;20201;-77
2022/07/10 08:28:05;;;;;;;4.85;2.90;;;26.10;64.70;;;;;;4947145;29;21078;-79
2022/07/10 08:30:34;;;;;;;3.67;2.78;;;26.20;64.80;;;;;;4940915;29;20660;-79
2022/07/10 08:33:03;;;;;;;3.45;2.40;;;26.20;64.80;;;;;;4938729;28;20199;-80
2022/07/10 08:35:32;;;;;;;4.03;2.83;;;26.30;63.70;;;;;;4942776;29;20653;-79
2022/07/10 08:38:01;;;;;;;3.78;2.72;;;26.30;63.40;;;;;;4944433;29;20190;-79
2022/07/10 08:40:36;;;;;;;5.47;2.80;;;26.40;63.30;;;;;;4943324;28;20206;-79
2022/07/10 08:43:05;;;;;;;4.85;2.67;;;26.50;63.80;;;;;;4942193;28;20206;-79
2022/07/10 08:45:36;;;;;;;5.43;3.00;;;26.60;63.70;;;;;;4949750;28;20204;-80
2022/07/10 08:48:08;;;;;;;4.32;2.90;;;26.60;62.70;;;;;;4950835;28;20233;-80
2022/07/10 08:50:43;;;;;;;5.20;3.42;;;26.60;62.40;;;;;;4944522;29;20195;-83
2022/07/10 08:53:19;;;;;;;6.47;3.25;;;26.70;63.20;;;;;;4936201;28;20214;-79
2022/07/10 08:55:50;;;;;;;4.95;3.08;;;26.80;63.50;;;;;;4942771;28;20700;-80
2022/07/10 08:58:20;;;;;;;4.72;3.17;;;26.80;62.90;;;;;;4939739;29;20211;-78
2022/07/10 09:00:49;;;;;;;3.05;2.47;;;26.80;62.80;;;;;;4945169;29;20199;-79
2022/07/10 09:03:17;;;;;;;3.47;2.70;;;26.90;62.40;;;;;;4943592;28;20245;-77
2022/07/10 09:05:46;;;;;;;4.47;3.08;;;27.00;62.30;;;;;;4939908;28;21070;-77
2022/07/10 09:08:27;;;;;;;5.45;2.70;;;27.20;60.70;;;;;;4943554;29;20214;-79
2022/07/10 09:11:14;;;;;;;4.97;2.60;;;27.20;60.10;;;;;;4942749;29;20241;-78
2022/07/10 09:13:53;;;;;;;5.65;2.60;;;27.20;59.50;;;;;;4941696;28;20202;-79
2022/07/10 09:16:23;;;;;;;3.58;2.38;;;27.20;59.40;;;;;;4939676;28;20194;-79
2022/07/10 09:18:52;;;;;;;3.85;2.80;;;27.20;59.50;;;;;;4943885;29;20206;-80
2022/07/10 09:21:22;;;;;;;4.07;2.70;;;27.30;59.80;;;;;;4941656;28;20285;-80
2022/07/10 09:24:05;;;;;;;6.90;2.83;;;27.40;59.90;;;;;;4934382;28;20254;-79
2022/07/10 09:26:36;;;;;;;3.70;2.63;;;27.50;59.50;;;;;;4938333;28;20217;-79
2022/07/10 09:29:08;;;;;;;5.13;2.80;;;27.50;59.20;;;;;;4934971;28;20199;-78
2022/07/10 09:31:56;;;;;;;4.63;2.80;;;27.60;59.10;;;;;;4946649;28;20198;-79
2022/07/10 09:34:46;;;;;;;5.78;3.00;;;27.60;59.30;;;;;;4941569;28;20809;-77
2022/07/10 09:37:22;;;;;;;4.00;2.92;;;27.70;59.60;;;;;;4943534;28;20292;-81
2022/07/10 09:39:54;;;;;;;3.80;2.95;;;27.70;59.20;;;;;;4948776;28;20206;-79
2022/07/10 09:42:34;;;;;;;4.25;2.63;;;27.70;59.10;;;;;;4945959;28;20194;-79
2022/07/10 09:45:17;;;;;;;3.42;2.65;;;27.80;59.00;;;;;;4941013;28;20684;-82
2022/07/10 09:47:47;;;;;;;7.47;2.97;;;27.80;59.30;;;;;;4944415;29;20685;-79
2022/07/10 09:50:27;;;;;;;4.75;3.30;;;27.80;59.00;;;;;;4943324;29;20229;-76
2022/07/10 09:52:57;;;;;;;4.53;2.65;;;27.80;58.30;;;;;;4932771;28;20297;-78
2022/07/10 09:55:27;;;;;;;5.20;2.67;;;27.80;58.30;;;;;;4931934;28;20202;-80
2022/07/10 09:57:59;;;;;;;4.70;3.05;;;27.90;57.90;;;;;;4941901;29;20660;-79
2022/07/10 10:00:29;;;;;;;4.78;2.83;;;27.90;57.50;;;;;;4940659;28;20229;-79
2022/07/10 10:03:00;;;;;;;3.30;2.67;;;28.00;58.00;;;;;;4935660;28;20241;-79
2022/07/10 10:05:36;;;;;;;4.68;2.78;;;28.10;58.10;;;;;;4934020;28;20236;-79
2022/07/10 10:08:13;;;;;;;4.22;2.60;;;28.10;58.30;;;;;;4940539;28;21591;-83
2022/07/10 10:10:47;;;;;;;3.35;2.60;;;28.10;58.10;;;;;;4933929;28;21116;-79
2022/07/10 10:13:20;;;;;;;3.97;2.65;;;28.10;57.60;;;;;;4941616;28;20198;-78
2022/07/10 10:15:49;;;;;;;5.35;2.88;;;28.10;57.60;;;;;;4940925;28;20198;-80
2022/07/10 10:18:20;;;;;;;4.88;2.92;;;28.10;57.30;;;;;;4943008;29;20205;-76
2022/07/10 10:20:48;;;;;;;4.72;2.83;;;28.10;57.00;;;;;;4940856;28;20199;-78
2022/07/10 10:23:20;;;;;;;4.43;3.13;;;28.20;56.90;;;;;;4938037;28;20202;-76
2022/07/10 10:25:49;;;;;;;6.45;3.33;;;28.30;56.90;;;;;;4940881;28;20194;-78
2022/07/10 10:28:24;;;;;;;2.90;2.30;;;28.30;57.10;;;;;;4938165;29;20214;-79
2022/07/10 10:30:57;;;;;;;5.07;2.70;;;28.40;57.00;;;;;;4934883;28;20238;-78
2022/07/10 10:33:46;;;;;;;4.10;2.50;;;28.40;57.00;;;;;;4943791;28;20201;-79
2022/07/10 10:36:36;;;;;;;3.58;2.92;;;28.40;56.60;;;;;;4944147;29;20198;-80
2022/07/10 10:39:12;;;;;;;3.35;2.58;;;28.50;56.20;;;;;;4935989;29;20198;-79
2022/07/10 10:41:42;;;;;;;4.35;2.83;;;28.50;56.10;;;;;;4939253;28;20198;-79
2022/07/10 10:44:35;;;;;;;4.30;2.95;;;28.60;56.50;;;;;;4938480;28;20688;-78
2022/07/10 10:47:06;;;;;;;8.77;3.20;;;28.60;56.40;;;;;;4939929;28;20687;-79
2022/07/10 10:49:57;;;;;;;4.30;2.83;;;28.70;56.20;;;;;;4943818;28;20194;-81
2022/07/10 10:52:25;;;;;;;4.28;2.90;;;28.80;55.50;;;;;;4939529;28;20277;-79
2022/07/10 10:55:15;;;;;;;4.57;2.78;;;28.80;55.60;;;;;;4929326;28;20585;-79
2022/07/10 10:57:51;;;;;;;4.38;2.80;;;28.90;55.90;;;;;;4937850;28;20835;-79
2022/07/10 11:00:41;;;;;;;6.53;2.97;;;28.90;56.10;;;;;;4943041;28;20722;-81
2022/07/10 11:03:17;;;;;;;6.32;2.70;;;28.90;55.80;;;;;;4939303;28;20226;-79
2022/07/10 11:05:47;;;;;;;5.50;2.60;;;28.90;55.50;;;;;;4938801;28;20198;-80
2022/07/10 11:08:37;;;;;;;12.18;3.00;;;28.90;55.30;;;;;;4941846;29;20218;-77
2022/07/10 11:11:42;;;;;;;16.40;3.97;;;28.80;55.50;;;;;;4942064;28;20187;-81
2022/07/10 11:14:12;;;;;;;4.85;3.35;;;28.70;55.00;;;;;;4939387;28;20206;-81
2022/07/10 11:16:49;;;;;;;4.82;3.72;;;28.60;55.90;;;;;;4897895;29;20210;-82
2022/07/10 11:19:25;;;;;;;7.72;3.92;;;28.50;57.10;;;;;;4945527;28;20194;-85
2022/07/10 11:22:09;;;;;;;8.68;4.25;;;28.40;58.10;;;;;;4945217;29;20704;-78
2022/07/10 11:24:49;;;;;;;7.20;3.95;;;28.20;59.50;;;;;;4944381;28;20223;-76
2022/07/10 11:27:31;;;;;;;6.97;4.78;;;28.10;60.40;;;;;;4943599;29;20208;-79
2022/07/10 11:30:00;;;;;;;7.03;4.80;;;28.00;62.00;;;;;;4944635;28;20210;-79
2022/07/10 11:32:30;;;;;;;5.28;3.88;;;27.80;62.10;;;;;;4947513;29;20613;-77
2022/07/10 11:34:59;;;;;;;4.40;3.08;;;27.80;62.70;;;;;;4941003;28;20568;-80
2022/07/10 11:37:30;;;;;;;5.05;3.05;;;27.70;62.70;;;;;;4944488;29;20209;-79
2022/07/10 11:40:20;;;;;;;3.47;2.55;;;27.70;62.50;;;;;;4944715;29;20669;-78
2022/07/10 11:42:53;;;;;;;2.95;2.25;;;27.70;63.30;;;;;;4935686;28;20199;-79
2022/07/10 11:45:30;;;;;;;5.78;2.97;;;27.60;61.40;;;;;;4942540;28;20194;-79
2022/07/10 11:48:00;;;;;;;4.50;3.35;;;27.60;60.80;;;;;;4940921;28;20265;-78
2022/07/10 11:50:34;;;;;;;7.57;3.88;;;27.50;61.30;;;;;;4937554;28;20202;-79
2022/07/10 11:53:03;;;;;;;6.20;3.30;;;27.50;62.50;;;;;;4942740;28;20288;-79
2022/07/10 11:55:36;;;;;;;7.63;3.67;;;27.40;62.40;;;;;;4932554;28;20199;-78
2022/07/10 11:58:17;;;;;;;7.00;3.30;;;27.40;62.70;;;;;;4940279;28;20209;-77
2022/07/10 12:00:59;;;;;;;6.65;2.80;;;27.40;63.60;;;;;;4940759;28;20199;-76
2022/07/10 12:03:29;;;;;;;4.93;2.65;;;27.40;61.10;;;;;;4940819;28;20244;-76
2022/07/10 12:06:04;;;;;;;3.10;2.20;;;27.30;59.90;;;;;;4945441;28;20198;-76
2022/07/10 12:08:44;;;;;;;4.38;2.50;;;27.30;59.30;;;;;;4944468;28;20217;-79
2022/07/10 12:11:14;;;;;;;3.85;1.90;;;27.30;59.40;;;;;;4940808;28;20846;-76
2022/07/10 12:13:42;;;;;;;3.63;1.90;;;27.20;59.30;;;;;;4937319;28;20213;-77
2022/07/10 12:16:11;;;;;;;3.13;2.17;;;27.30;58.60;;;;;;4937635;28;20254;-77
2022/07/10 12:18:42;;;;;;;1.90;1.65;;;27.30;58.60;;;;;;4943517;28;20206;-77
2022/07/10 12:21:13;;;;;;;4.13;2.25;;;27.30;58.30;;;;;;4940788;28;20194;-77
2022/07/10 12:23:44;;;;;;;5.25;2.05;;;27.30;57.80;;;;;;4938646;28;20206;-79
2022/07/10 12:26:14;;;;;;;2.83;1.67;;;27.40;58.10;;;;;;4937327;28;20901;-79
2022/07/10 12:28:54;;;;;;;4.57;1.60;;;27.50;58.50;;;;;;4943386;28;20230;-76
2022/07/10 12:31:24;;;;;;;5.72;1.70;;;27.60;58.40;;;;;;4938396;28;20229;-77
2022/07/10 12:33:57;;;;;;;6.45;1.73;;;27.80;58.40;;;;;;4944642;28;20233;-78
2022/07/10 12:36:27;;;;;;;3.47;2.35;;;27.90;58.30;;;;;;4944458;28;20704;-76
2022/07/10 12:38:58;;;;;;;3.85;2.72;;;28.00;58.00;;;;;;4944055;28;20212;-76
2022/07/10 12:41:27;;;;;;;4.50;2.30;;;28.10;58.10;;;;;;4941059;28;20215;-76
2022/07/10 12:43:55;;;;;;;5.00;2.50;;;28.10;58.30;;;;;;4940243;28;20209;-75
2022/07/10 12:46:25;;;;;;;4.80;2.80;;;28.30;58.40;;;;;;4941719;28;20220;-75
2022/07/10 12:49:06;;;;;;;3.65;2.78;;;28.50;58.50;;;;;;4943873;28;20306;-77
2022/07/10 12:51:35;;;;;;;3.90;3.00;;;28.60;58.50;;;;;;4938879;28;20221;-75
2022/07/10 12:54:34;;;;;;;7.75;2.83;;;28.70;57.80;;;;;;4945678;29;20209;-77
2022/07/10 12:57:05;;;;;;;4.18;3.10;;;28.80;57.60;;;;;;4940124;28;20210;-78
2022/07/10 12:59:35;;;;;;;4.40;2.88;;;28.90;57.80;;;;;;4945417;28;20194;-74
2022/07/10 13:02:22;;;;;;;8.70;2.83;;;29.00;57.70;;;;;;4945512;28;20198;-75
2022/07/10 13:04:56;;;;;;;4.35;2.70;;;29.00;57.70;;;;;;4945979;29;20730;-75
2022/07/10 13:07:31;;;;;;;6.43;2.83;;;29.00;57.20;;;;;;4944797;28;20213;-76
2022/07/10 13:10:01;;;;;;;12.05;2.42;;;29.10;57.20;;;;;;4940187;28;20222;-74